LEVX/VGO METAR and TAF weather

Enter ICAO airport designator
Station Type Date Time Source
LEVX METAR 2020/12/06 01:00 UTC NOAA

LEVX 060100Z 21006KT 8000 0700E R19/0900U R01/1700U BCFG NSC 03/03 Q1013 TEMPO 3000 BCFG


Station Type Date Time Source
LEVX Decoded METAR 2020/12/06 01:00 UTC NOAA

Vigo / Peinador, Spain (LEVX) 42-13N 008-38W 255M
Dec 05, 2020 - 08:00 PM EST / 2020.12.06 0100 UTC
Wind: from the SSW (210 degrees) at 7 MPH (6 KT):0
Visibility: 4 mile(s):0
Weather: patches of fog
Temperature: 37 F (3 C)
Dew Point: 37 F (3 C)
Relative Humidity: 100%
Pressure (altimeter): 29.91 in. Hg (1013 hPa)
ob: LEVX 060100Z 21006KT 8000 0700E R19/0900U R01/1700U BCFG NSC 03/03 Q1013 TEMPO 3000 BCFG
cycle: 1

Station Type Date Time Source
LEVX TAF 2020/12/05 21:27 UTC NOAA

TAF
AMD LEVX 052119Z 0521/0618 VRB06KT 9999 FEW020 SCT035 TX07/0613Z TN04/0603Z PROB40 0521/0606 36010KT 3000 -RA SHRA SCT030TCU PROB40
TEMPO 0521/0608 1000 -RA BCFG
TEMPO 0610/0618 3000 RA BKN010 PROB40
TEMPO 0614/0618 1500 RA BCFG BKN005

Example: see airport list